createdAt,value
2023-05-05T00:03:19.624Z,12.60
2023-05-05T00:13:24.020Z,12.55
2023-05-05T00:23:26.646Z,12.51
2023-05-05T00:33:30.598Z,12.51
2023-05-05T00:43:33.316Z,12.43
2023-05-05T00:53:39.612Z,12.29
2023-05-05T01:03:42.672Z,12.06
2023-05-05T01:13:58.007Z,12.15
2023-05-05T01:24:12.286Z,11.92
2023-05-05T01:34:20.201Z,11.87
2023-05-05T01:44:22.962Z,11.64
2023-05-05T01:54:28.089Z,11.68
2023-05-05T02:04:33.065Z,11.56
2023-05-05T02:14:40.087Z,11.51
2023-05-05T02:24:42.988Z,11.43
2023-05-05T02:34:50.612Z,11.40
2023-05-05T02:44:56.259Z,11.34
2023-05-05T02:55:01.178Z,11.24
2023-05-05T03:05:10.693Z,11.34
2023-05-05T03:15:15.238Z,11.43
2023-05-05T03:25:17.896Z,11.42
2023-05-05T03:35:22.978Z,11.51
2023-05-05T03:45:25.797Z,11.49
2023-05-05T03:55:29.809Z,11.45
2023-05-05T04:05:32.508Z,11.54
2023-05-05T04:15:36.670Z,11.36
2023-05-05T04:25:39.738Z,11.15
2023-05-05T04:35:43.727Z,11.11
2023-05-05T04:45:53.469Z,11.27
2023-05-05T04:55:57.458Z,11.48
2023-05-05T05:06:00.325Z,11.84
2023-05-05T05:16:04.421Z,12.29
2023-05-05T05:26:07.239Z,12.65
2023-05-05T05:36:11.304Z,12.15
2023-05-05T05:46:13.964Z,12.04
2023-05-05T05:56:17.913Z,11.92
2023-05-05T06:06:20.577Z,11.61
2023-05-05T06:16:24.724Z,11.33
2023-05-05T06:26:27.464Z,11.04
2023-05-05T06:36:32.214Z,11.23
2023-05-05T06:46:34.998Z,11.34
2023-05-05T06:56:39.034Z,11.05
2023-05-05T07:06:41.677Z,11.45
2023-05-05T07:16:46.367Z,12.04
2023-05-05T07:26:49.034Z,12.32
2023-05-05T07:36:53.030Z,12.57
2023-05-05T07:46:55.961Z,13.03
2023-05-05T07:56:59.993Z,13.26
2023-05-05T08:07:02.715Z,13.59
2023-05-05T08:17:06.974Z,14.00
2023-05-05T08:27:09.586Z,14.32
2023-05-05T08:37:13.565Z,14.44
2023-05-05T08:47:16.864Z,14.35
2023-05-05T08:57:26.712Z,14.63
2023-05-05T09:07:29.366Z,15.03
2023-05-05T09:17:33.319Z,15.72
2023-05-05T09:27:40.713Z,15.95
2023-05-05T09:37:45.016Z,16.12
2023-05-05T09:47:48.474Z,16.65
2023-05-05T09:57:52.901Z,17.18
2023-05-05T10:07:55.593Z,17.79
2023-05-05T10:18:07.834Z,18.21
2023-05-05T10:28:17.091Z,18.51
2023-05-05T10:38:24.798Z,19.32
2023-05-05T10:48:35.453Z,19.45
2023-05-05T10:58:58.331Z,19.82
2023-05-05T11:09:29.992Z,20.42
2023-05-05T11:19:48.642Z,21.21
2023-05-05T11:30:09.363Z,26.38
2023-05-05T11:40:21.756Z,32.70
2023-05-05T11:50:27.085Z,33.64
2023-05-05T12:00:33.567Z,30.67
2023-05-05T12:10:37.648Z,30.25
2023-05-05T12:20:41.669Z,28.43
2023-05-05T12:30:57.470Z,25.87
2023-05-05T12:41:00.147Z,22.94
2023-05-05T12:51:16.027Z,22.14
2023-05-05T13:01:18.699Z,21.64
2023-05-05T13:11:22.760Z,21.14
2023-05-05T13:21:26.032Z,21.42
2023-05-05T13:31:30.623Z,21.70
2023-05-05T13:41:33.321Z,21.38
2023-05-05T13:51:38.319Z,20.91
2023-05-05T14:01:41.115Z,20.39
2023-05-05T14:11:45.074Z,20.17
2023-05-05T14:21:47.813Z,20.06
2023-05-05T14:31:52.152Z,19.65
2023-05-05T14:41:54.798Z,19.32
2023-05-05T14:51:58.949Z,19.06
2023-05-05T15:02:01.845Z,18.82
2023-05-05T15:12:06.578Z,17.82
2023-05-05T15:22:09.308Z,14.69
2023-05-05T15:32:13.305Z,14.11
2023-05-05T15:42:16.058Z,13.79
2023-05-05T15:52:20.337Z,13.70
2023-05-05T16:02:23.179Z,13.66
2023-05-05T16:12:27.377Z,13.73
2023-05-05T16:22:30.511Z,13.68
2023-05-05T16:32:34.877Z,13.90
2023-05-05T16:42:37.736Z,13.89
2023-05-05T16:52:42.017Z,13.78
2023-05-05T17:02:44.641Z,13.74
2023-05-05T17:12:48.676Z,13.84
2023-05-05T17:22:51.503Z,13.88
2023-05-05T17:32:55.829Z,13.82
2023-05-05T17:42:58.602Z,14.00
2023-05-05T17:53:02.588Z,14.15
2023-05-05T18:03:05.830Z,13.91
2023-05-05T18:13:09.883Z,13.92
2023-05-05T18:23:12.770Z,13.73
2023-05-05T18:33:16.782Z,13.79
2023-05-05T18:43:19.427Z,13.82
2023-05-05T18:53:23.356Z,13.88
2023-05-05T19:03:26.045Z,13.86
2023-05-05T19:13:30.021Z,13.94
2023-05-05T19:23:33.181Z,13.70
2023-05-05T19:33:37.351Z,13.47
2023-05-05T19:43:40.242Z,13.62
2023-05-05T19:53:45.717Z,13.47
2023-05-05T20:03:48.480Z,13.52
2023-05-05T20:13:53.133Z,13.48
2023-05-05T20:23:55.836Z,13.55
2023-05-05T20:33:59.780Z,13.48
2023-05-05T20:44:03.613Z,13.44
2023-05-05T20:54:07.638Z,13.38
2023-05-05T21:04:10.337Z,13.37
2023-05-05T21:14:14.499Z,13.19
2023-05-05T21:24:17.329Z,12.77
2023-05-05T21:34:21.279Z,12.62
2023-05-05T21:44:25.408Z,12.50
2023-05-05T21:54:30.083Z,12.37
2023-05-05T22:04:32.740Z,12.51
2023-05-05T22:14:36.801Z,12.59
2023-05-05T22:24:39.404Z,12.79
2023-05-05T22:34:43.434Z,12.86
2023-05-05T22:44:46.093Z,12.97
2023-05-05T22:54:50.021Z,12.91
2023-05-05T23:04:52.701Z,12.99
2023-05-05T23:14:56.747Z,13.00
2023-05-05T23:24:59.336Z,13.00
2023-05-05T23:35:03.315Z,12.87
2023-05-05T23:45:06.669Z,12.82
2023-05-05T23:55:11.436Z,12.84
